sensor_id;sensor_type;location;lat;lon;timestamp;pressure;altitude;pressure_sealevel;temperature;humidity
43818;BME280;29868;47.360;18.984;2022-12-24T00:01:53;99728.84;;;4.50;100.00
43818;BME280;29868;47.360;18.984;2022-12-24T00:04:19;99741.84;;;4.54;100.00
43818;BME280;29868;47.360;18.984;2022-12-24T00:06:44;99750.50;;;4.56;100.00
43818;BME280;29868;47.360;18.984;2022-12-24T00:09:09;99734.66;;;4.73;100.00
43818;BME280;29868;47.360;18.984;2022-12-24T00:11:35;99739.56;;;4.63;100.00
43818;BME280;29868;47.360;18.984;2022-12-24T00:14:00;99739.00;;;4.74;100.00
43818;BME280;29868;47.360;18.984;2022-12-24T00:16:26;99731.19;;;4.71;100.00
43818;BME280;29868;47.360;18.984;2022-12-24T00:18:51;99716.84;;;4.79;100.00
43818;BME280;29868;47.360;18.984;2022-12-24T00:21:17;99706.38;;;4.73;100.00
43818;BME280;29868;47.360;18.984;2022-12-24T00:23:42;99690.19;;;4.77;100.00
43818;BME280;29868;47.360;18.984;2022-12-24T00:26:08;99701.22;;;4.73;100.00
43818;BME280;29868;47.360;18.984;2022-12-24T00:28:33;99708.50;;;4.57;100.00
43818;BME280;29868;47.360;18.984;2022-12-24T00:30:58;99719.81;;;4.62;100.00
43818;BME280;29868;47.360;18.984;2022-12-24T00:33:24;99728.53;;;4.68;100.00
43818;BME280;29868;47.360;18.984;2022-12-24T00:35:50;99720.53;;;4.88;100.00
43818;BME280;29868;47.360;18.984;2022-12-24T00:38:16;99735.06;;;4.86;100.00
43818;BME280;29868;47.360;18.984;2022-12-24T00:40:42;99745.19;;;4.80;100.00
43818;BME280;29868;47.360;18.984;2022-12-24T00:43:07;99744.75;;;4.95;100.00
43818;BME280;29868;47.360;18.984;2022-12-24T00:45:32;99755.47;;;4.80;100.00
43818;BME280;29868;47.360;18.984;2022-12-24T00:47:58;99772.72;;;4.83;100.00
43818;BME280;29868;47.360;18.984;2022-12-24T00:50:23;99771.78;;;4.81;100.00
43818;BME280;29868;47.360;18.984;2022-12-24T00:52:49;99783.94;;;4.85;100.00
43818;BME280;29868;47.360;18.984;2022-12-24T00:55:14;99771.72;;;4.78;100.00
43818;BME280;29868;47.360;18.984;2022-12-24T00:57:39;99776.94;;;4.81;100.00
43818;BME280;29868;47.360;18.984;2022-12-24T01:00:05;99767.59;;;4.84;100.00
43818;BME280;29868;47.360;18.984;2022-12-24T01:02:31;99764.38;;;4.92;100.00
43818;BME280;29868;47.360;18.984;2022-12-24T01:04:56;99763.59;;;4.94;100.00
43818;BME280;29868;47.360;18.984;2022-12-24T01:07:39;99746.16;;;4.84;100.00
43818;BME280;29868;47.360;18.984;2022-12-24T01:10:07;99735.91;;;4.85;100.00
43818;BME280;29868;47.360;18.984;2022-12-24T01:12:32;99735.03;;;4.85;100.00
43818;BME280;29868;47.360;18.984;2022-12-24T01:14:58;99734.22;;;4.86;100.00
43818;BME280;29868;47.360;18.984;2022-12-24T01:17:23;99717.03;;;4.85;100.00
43818;BME280;29868;47.360;18.984;2022-12-24T01:19:49;99717.28;;;4.94;100.00
43818;BME280;29868;47.360;18.984;2022-12-24T01:22:14;99686.78;;;5.08;100.00
43818;BME280;29868;47.360;18.984;2022-12-24T01:24:40;99671.13;;;5.00;100.00
43818;BME280;29868;47.360;18.984;2022-12-24T01:27:06;99677.47;;;4.81;100.00
43818;BME280;29868;47.360;18.984;2022-12-24T01:29:32;99681.16;;;4.91;100.00
43818;BME280;29868;47.360;18.984;2022-12-24T01:31:57;99694.88;;;4.90;100.00
43818;BME280;29868;47.360;18.984;2022-12-24T01:34:22;99682.84;;;4.89;100.00
43818;BME280;29868;47.360;18.984;2022-12-24T01:36:48;99676.41;;;5.06;100.00
43818;BME280;29868;47.360;18.984;2022-12-24T01:39:13;99702.72;;;4.96;100.00
43818;BME280;29868;47.360;18.984;2022-12-24T01:41:39;99686.41;;;4.94;100.00
43818;BME280;29868;47.360;18.984;2022-12-24T01:49:45;99693.38;;;4.98;100.00
43818;BME280;29868;47.360;18.984;2022-12-24T01:52:25;99673.91;;;5.08;100.00
43818;BME280;29868;47.360;18.984;2022-12-24T01:55:09;99702.06;;;5.03;100.00
43818;BME280;29868;47.360;18.984;2022-12-24T01:57:50;99675.63;;;5.09;100.00
43818;BME280;29868;47.360;18.984;2022-12-24T02:00:18;99693.19;;;4.92;100.00
43818;BME280;29868;47.360;18.984;2022-12-24T02:02:46;99695.69;;;4.89;100.00
43818;BME280;29868;47.360;18.984;2022-12-24T02:05:45;99708.72;;;4.95;100.00
43818;BME280;29868;47.360;18.984;2022-12-24T02:08:11;99685.88;;;5.07;100.00
43818;BME280;29868;47.360;18.984;2022-12-24T02:10:36;99691.63;;;4.97;100.00
43818;BME280;29868;47.360;18.984;2022-12-24T02:13:03;99692.59;;;5.01;100.00
43818;BME280;29868;47.360;18.984;2022-12-24T02:24:06;99738.94;;;5.02;100.00
43818;BME280;29868;47.360;18.984;2022-12-24T02:26:59;99779.28;;;5.03;100.00
43818;BME280;29868;47.360;18.984;2022-12-24T02:38:15;99706.06;;;4.92;100.00
43818;BME280;29868;47.360;18.984;2022-12-24T02:41:00;99703.66;;;4.98;100.00
43818;BME280;29868;47.360;18.984;2022-12-24T02:43:32;99685.63;;;4.97;100.00
43818;BME280;29868;47.360;18.984;2022-12-24T02:46:04;99681.13;;;4.90;100.00
43818;BME280;29868;47.360;18.984;2022-12-24T02:48:31;99677.75;;;4.92;100.00
43818;BME280;29868;47.360;18.984;2022-12-24T02:51:06;99679.38;;;4.88;100.00
43818;BME280;29868;47.360;18.984;2022-12-24T02:53:32;99695.53;;;4.84;100.00
43818;BME280;29868;47.360;18.984;2022-12-24T03:05:03;99714.69;;;4.94;100.00
43818;BME280;29868;47.360;18.984;2022-12-24T03:07:18;99719.75;;;4.91;100.00
43818;BME280;29868;47.360;18.984;2022-12-24T03:10:08;99718.06;;;4.92;100.00
43818;BME280;29868;47.360;18.984;2022-12-24T03:12:43;99714.28;;;4.79;100.00
43818;BME280;29868;47.360;18.984;2022-12-24T03:15:13;99711.47;;;4.71;100.00
43818;BME280;29868;47.360;18.984;2022-12-24T03:17:41;99716.44;;;4.65;100.00
43818;BME280;29868;47.360;18.984;2022-12-24T03:20:10;99712.16;;;4.66;100.00
43818;BME280;29868;47.360;18.984;2022-12-24T03:22:37;99717.47;;;4.70;100.00
43818;BME280;29868;47.360;18.984;2022-12-24T03:25:03;99708.69;;;4.63;100.00
43818;BME280;29868;47.360;18.984;2022-12-24T03:27:29;99714.50;;;4.58;100.00
43818;BME280;29868;47.360;18.984;2022-12-24T03:29:56;99716.31;;;4.60;100.00
43818;BME280;29868;47.360;18.984;2022-12-24T03:32:24;99720.72;;;4.64;100.00
43818;BME280;29868;47.360;18.984;2022-12-24T03:34:52;99719.19;;;4.71;100.00
43818;BME280;29868;47.360;18.984;2022-12-24T03:37:18;99716.94;;;4.82;100.00
43818;BME280;29868;47.360;18.984;2022-12-24T03:39:43;99725.22;;;4.72;100.00
43818;BME280;29868;47.360;18.984;2022-12-24T03:42:09;99726.00;;;4.69;100.00
43818;BME280;29868;47.360;18.984;2022-12-24T03:44:34;99716.44;;;4.65;100.00
43818;BME280;29868;47.360;18.984;2022-12-24T03:46:59;99732.75;;;4.66;100.00
43818;BME280;29868;47.360;18.984;2022-12-24T03:49:25;99731.66;;;4.57;100.00
43818;BME280;29868;47.360;18.984;2022-12-24T03:51:50;99738.41;;;4.54;100.00
43818;BME280;29868;47.360;18.984;2022-12-24T03:54:15;99739.59;;;4.65;100.00
43818;BME280;29868;47.360;18.984;2022-12-24T03:56:41;99743.88;;;4.64;100.00
43818;BME280;29868;47.360;18.984;2022-12-24T03:59:06;99741.84;;;4.54;100.00
43818;BME280;29868;47.360;18.984;2022-12-24T04:01:32;99745.13;;;4.49;100.00
43818;BME280;29868;47.360;18.984;2022-12-24T04:03:57;99740.63;;;4.42;100.00
43818;BME280;29868;47.360;18.984;2022-12-24T04:06:22;99744.16;;;4.45;100.00
43818;BME280;29868;47.360;18.984;2022-12-24T04:08:48;99741.59;;;4.45;100.00
43818;BME280;29868;47.360;18.984;2022-12-24T04:11:16;99740.59;;;4.40;100.00
43818;BME280;29868;47.360;18.984;2022-12-24T04:13:42;99742.28;;;4.39;100.00
43818;BME280;29868;47.360;18.984;2022-12-24T04:16:10;99739.09;;;4.48;100.00
43818;BME280;29868;47.360;18.984;2022-12-24T04:18:36;99750.81;;;4.38;100.00
43818;BME280;29868;47.360;18.984;2022-12-24T04:21:02;99751.50;;;4.33;100.00
43818;BME280;29868;47.360;18.984;2022-12-24T04:23:29;99756.66;;;4.33;100.00
43818;BME280;29868;47.360;18.984;2022-12-24T04:25:55;99758.66;;;4.43;100.00
43818;BME280;29868;47.360;18.984;2022-12-24T04:28:20;99757.78;;;4.43;100.00
43818;BME280;29868;47.360;18.984;2022-12-24T04:30:46;99752.84;;;4.49;100.00
43818;BME280;29868;47.360;18.984;2022-12-24T04:33:11;99753.50;;;4.43;100.00
43818;BME280;29868;47.360;18.984;2022-12-24T04:35:40;99749.19;;;4.42;100.00
43818;BME280;29868;47.360;18.984;2022-12-24T04:38:06;99758.59;;;4.40;100.00
43818;BME280;29868;47.360;18.984;2022-12-24T04:40:32;99746.00;;;4.49;100.00
43818;BME280;29868;47.360;18.984;2022-12-24T04:42:57;99747.47;;;4.41;100.00
43818;BME280;29868;47.360;18.984;2022-12-24T04:45:23;99752.38;;;4.33;100.00
43818;BME280;29868;47.360;18.984;2022-12-24T04:47:48;99743.97;;;4.39;100.00
43818;BME280;29868;47.360;18.984;2022-12-24T04:50:13;99758.28;;;4.31;100.00
43818;BME280;29868;47.360;18.984;2022-12-24T04:52:39;99750.47;;;4.28;100.00
43818;BME280;29868;47.360;18.984;2022-12-24T04:55:05;99747.88;;;4.26;100.00
43818;BME280;29868;47.360;18.984;2022-12-24T04:57:31;99741.72;;;4.21;100.00
43818;BME280;29868;47.360;18.984;2022-12-24T04:59:57;99746.78;;;4.20;100.00
43818;BME280;29868;47.360;18.984;2022-12-24T05:02:23;99751.94;;;4.20;100.00
43818;BME280;29868;47.360;18.984;2022-12-24T05:04:49;99761.41;;;4.21;100.00
43818;BME280;29868;47.360;18.984;2022-12-24T05:07:15;99754.50;;;4.20;100.00
43818;BME280;29868;47.360;18.984;2022-12-24T05:09:40;99762.31;;;4.23;100.00
43818;BME280;29868;47.360;18.984;2022-12-24T05:12:06;99755.22;;;4.43;100.00
43818;BME280;29868;47.360;18.984;2022-12-24T05:14:31;99764.88;;;4.23;100.00
43818;BME280;29868;47.360;18.984;2022-12-24T05:16:56;99760.97;;;4.07;100.00
43818;BME280;29868;47.360;18.984;2022-12-24T05:19:22;99760.13;;;4.08;100.00
43818;BME280;29868;47.360;18.984;2022-12-24T05:21:47;99765.09;;;4.02;100.00
43818;BME280;29868;47.360;18.984;2022-12-24T05:24:33;99768.63;;;4.05;100.00
43818;BME280;29868;47.360;18.984;2022-12-24T05:27:17;99773.13;;;4.12;100.00
43818;BME280;29868;47.360;18.984;2022-12-24T05:29:42;99779.09;;;4.11;100.00
43818;BME280;29868;47.360;18.984;2022-12-24T05:32:07;99789.22;;;4.07;100.00
43818;BME280;29868;47.360;18.984;2022-12-24T05:34:33;99794.38;;;4.07;100.00
43818;BME280;29868;47.360;18.984;2022-12-24T05:36:58;99793.28;;;4.00;100.00
43818;BME280;29868;47.360;18.984;2022-12-24T05:39:24;99794.97;;;3.98;100.00
43818;BME280;29868;47.360;18.984;2022-12-24T05:41:49;99793.28;;;4.00;100.00
43818;BME280;29868;47.360;18.984;2022-12-24T05:44:15;99791.66;;;4.02;100.00
43818;BME280;29868;47.360;18.984;2022-12-24T05:46:41;99796.81;;;4.02;100.00
43818;BME280;29868;47.360;18.984;2022-12-24T05:49:06;99793.63;;;4.09;100.00
43818;BME280;29868;47.360;18.984;2022-12-24T05:51:32;99785.22;;;4.15;100.00
43818;BME280;29868;47.360;18.984;2022-12-24T05:53:57;99770.50;;;4.38;100.00
43818;BME280;29868;47.360;18.984;2022-12-24T05:56:23;99778.44;;;4.46;100.00
43818;BME280;29868;47.360;18.984;2022-12-24T05:58:50;99781.78;;;4.14;100.00
43818;BME280;29868;47.360;18.984;2022-12-24T06:01:17;99790.06;;;4.06;100.00
43818;BME280;29868;47.360;18.984;2022-12-24T06:03:43;99803.66;;;4.02;100.00
43818;BME280;29868;47.360;18.984;2022-12-24T06:06:11;99808.44;;;3.91;100.00
43818;BME280;29868;47.360;18.984;2022-12-24T06:08:37;99803.03;;;3.83;100.00
43818;BME280;29868;47.360;18.984;2022-12-24T06:11:06;99789.00;;;3.74;100.00
43818;BME280;29868;47.360;18.984;2022-12-24T06:13:32;99801.66;;;3.68;100.00
43818;BME280;29868;47.360;18.984;2022-12-24T06:15:59;99806.06;;;3.72;100.00
43818;BME280;29868;47.360;18.984;2022-12-24T06:18:25;99804.63;;;3.56;100.00
43818;BME280;29868;47.360;18.984;2022-12-24T06:20:54;99810.41;;;3.49;100.00
43818;BME280;29868;47.360;18.984;2022-12-24T06:23:21;99820.59;;;3.47;100.00
43818;BME280;29868;47.360;18.984;2022-12-24T06:25:48;99827.00;;;3.58;100.00
43818;BME280;29868;47.360;18.984;2022-12-24T06:28:14;99821.84;;;3.58;100.00
43818;BME280;29868;47.360;18.984;2022-12-24T06:30:40;99823.25;;;3.74;100.00
43818;BME280;29868;47.360;18.984;2022-12-24T06:33:05;99822.34;;;3.72;100.00
43818;BME280;29868;47.360;18.984;2022-12-24T06:35:31;99812.25;;;3.78;100.00
43818;BME280;29868;47.360;18.984;2022-12-24T06:37:57;99817.97;;;3.70;100.00
43818;BME280;29868;47.360;18.984;2022-12-24T06:40:24;99829.78;;;3.64;100.00
43818;BME280;29868;47.360;18.984;2022-12-24T06:42:50;99834.09;;;3.65;100.00
43818;BME280;29868;47.360;18.984;2022-12-24T06:45:16;99833.41;;;3.71;100.00
43818;BME280;29868;47.360;18.984;2022-12-24T06:47:41;99841.13;;;3.71;100.00
43818;BME280;29868;47.360;18.984;2022-12-24T06:50:07;99843.75;;;3.73;100.00
43818;BME280;29868;47.360;18.984;2022-12-24T06:52:32;99858.00;;;3.88;100.00
43818;BME280;29868;47.360;18.984;2022-12-24T06:54:58;99854.00;;;3.97;100.00
43818;BME280;29868;47.360;18.984;2022-12-24T06:57:23;99843.06;;;4.02;100.00
43818;BME280;29868;47.360;18.984;2022-12-24T06:59:48;99845.13;;;3.87;100.00
43818;BME280;29868;47.360;18.984;2022-12-24T07:02:14;99844.16;;;3.85;100.00
43818;BME280;29868;47.360;18.984;2022-12-24T07:04:39;99845.00;;;3.84;100.00
43818;BME280;29868;47.360;18.984;2022-12-24T07:07:05;99840.06;;;3.90;100.00
43818;BME280;29868;47.360;18.984;2022-12-24T07:09:30;99848.66;;;3.90;100.00
43818;BME280;29868;47.360;18.984;2022-12-24T07:11:55;99857.38;;;3.96;100.00
43818;BME280;29868;47.360;18.984;2022-12-24T07:14:21;99857.53;;;4.00;100.00
43818;BME280;29868;47.360;18.984;2022-12-24T07:16:46;99859.91;;;3.94;100.00
43818;BME280;29868;47.360;18.984;2022-12-24T07:19:12;99854.13;;;4.27;100.00
43818;BME280;29868;47.360;18.984;2022-12-24T07:21:37;99854.13;;;4.27;100.00
43818;BME280;29868;47.360;18.984;2022-12-24T07:24:03;99849.72;;;4.23;100.00
43818;BME280;29868;47.360;18.984;2022-12-24T07:26:28;99849.09;;;4.30;100.00
43818;BME280;29868;47.360;18.984;2022-12-24T07:28:54;99854.25;;;4.30;100.00
43818;BME280;29868;47.360;18.984;2022-12-24T07:31:19;99844.94;;;4.33;100.00
43818;BME280;29868;47.360;18.984;2022-12-24T07:33:45;99851.91;;;4.37;100.00
43818;BME280;29868;47.360;18.984;2022-12-24T07:36:16;99848.13;;;4.53;100.00
43818;BME280;29868;47.360;18.984;2022-12-24T07:38:43;99858.56;;;4.58;100.00
43818;BME280;29868;47.360;18.984;2022-12-24T07:41:08;99864.59;;;4.58;100.00
43818;BME280;29868;47.360;18.984;2022-12-24T07:43:34;99866.56;;;4.67;100.00
43818;BME280;29868;47.360;18.984;2022-12-24T07:45:59;99866.19;;;4.82;100.00
43818;BME280;29868;47.360;18.984;2022-12-24T07:48:26;99869.03;;;4.91;100.00
43818;BME280;29868;47.360;18.984;2022-12-24T07:50:52;99874.75;;;5.11;100.00
43818;BME280;29868;47.360;18.984;2022-12-24T07:53:18;99885.28;;;5.19;100.00
43818;BME280;29868;47.360;18.984;2022-12-24T07:55:44;99886.44;;;5.28;100.00
43818;BME280;29868;47.360;18.984;2022-12-24T07:58:10;99891.56;;;5.27;100.00
43818;BME280;29868;47.360;18.984;2022-12-24T08:00:36;99909.59;;;5.27;100.00
43818;BME280;29868;47.360;18.984;2022-12-24T08:03:01;99900.94;;;5.25;100.00
43818;BME280;29868;47.360;18.984;2022-12-24T08:05:27;99904.81;;;5.41;100.00
43818;BME280;29868;47.360;18.984;2022-12-24T08:07:53;99906.13;;;5.56;100.00
43818;BME280;29868;47.360;18.984;2022-12-24T08:10:18;99910.59;;;5.62;100.00
43818;BME280;29868;47.360;18.984;2022-12-24T08:12:44;99932.25;;;5.69;100.00
43818;BME280;29868;47.360;18.984;2022-12-24T08:15:10;99928.41;;;5.84;100.00
43818;BME280;29868;47.360;18.984;2022-12-24T08:17:36;99934.53;;;5.90;100.00
43818;BME280;29868;47.360;18.984;2022-12-24T08:20:02;99934.91;;;6.02;100.00
43818;BME280;29868;47.360;18.984;2022-12-24T08:22:29;99951.94;;;5.95;100.00
43818;BME280;29868;47.360;18.984;2022-12-24T08:24:54;99959.28;;;6.13;100.00
43818;BME280;29868;47.360;18.984;2022-12-24T08:27:20;99971.38;;;6.16;100.00
43818;BME280;29868;47.360;18.984;2022-12-24T08:29:45;99970.75;;;6.24;100.00
43818;BME280;29868;47.360;18.984;2022-12-24T08:32:10;99959.66;;;6.27;100.00
43818;BME280;29868;47.360;18.984;2022-12-24T08:34:36;99981.13;;;6.26;100.00
43818;BME280;29868;47.360;18.984;2022-12-24T08:37:01;99968.53;;;6.38;100.00
43818;BME280;29868;47.360;18.984;2022-12-24T08:39:27;99979.03;;;6.44;100.00
43818;BME280;29868;47.360;18.984;2022-12-24T08:41:52;99979.28;;;6.55;100.00
43818;BME280;29868;47.360;18.984;2022-12-24T08:44:17;99980.56;;;6.71;100.00
43818;BME280;29868;47.360;18.984;2022-12-24T08:46:43;99986.94;;;6.85;100.00
43818;BME280;29868;47.360;18.984;2022-12-24T08:49:08;99999.91;;;6.88;100.00
43818;BME280;29868;47.360;18.984;2022-12-24T08:51:33;100004.47;;;6.98;100.00
43818;BME280;29868;47.360;18.984;2022-12-24T08:53:59;100000.38;;;7.06;100.00
43818;BME280;29868;47.360;18.984;2022-12-24T08:56:24;100000.34;;;7.05;100.00
43818;BME280;29868;47.360;18.984;2022-12-24T08:58:50;99997.09;;;7.14;100.00
43818;BME280;29868;47.360;18.984;2022-12-24T09:01:18;100013.34;;;7.10;100.00
43818;BME280;29868;47.360;18.984;2022-12-24T09:03:44;100015.38;;;7.23;100.00
43818;BME280;29868;47.360;18.984;2022-12-24T09:06:10;100018.81;;;7.22;100.00
43818;BME280;29868;47.360;18.984;2022-12-24T09:08:36;100016.63;;;7.39;100.00
43818;BME280;29868;47.360;18.984;2022-12-24T09:11:13;100004.69;;;7.45;100.00
43818;BME280;29868;47.360;18.984;2022-12-24T09:13:39;100011.06;;;7.61;100.00
43818;BME280;29868;47.360;18.984;2022-12-24T09:16:05;100005.13;;;7.64;100.00
43818;BME280;29868;47.360;18.984;2022-12-24T09:18:31;100020.16;;;7.83;100.00
43818;BME280;29868;47.360;18.984;2022-12-24T09:21:05;100017.81;;;7.94;100.00
43818;BME280;29868;47.360;18.984;2022-12-24T09:23:34;100016.31;;;8.03;100.00
43818;BME280;29868;47.360;18.984;2022-12-24T09:25:59;100017.50;;;8.21;100.00
43818;BME280;29868;47.360;18.984;2022-12-24T09:28:25;100021.53;;;8.50;100.00
43818;BME280;29868;47.360;18.984;2022-12-24T09:30:57;100018.28;;;8.61;100.00
43818;BME280;29868;47.360;18.984;2022-12-24T09:33:23;100020.69;;;8.51;100.00
43818;BME280;29868;47.360;18.984;2022-12-24T09:35:51;100034.50;;;8.50;100.00
43818;BME280;29868;47.360;18.984;2022-12-24T09:38:16;100034.63;;;8.58;100.00
43818;BME280;29868;47.360;18.984;2022-12-24T09:40:42;100038.22;;;8.65;100.00
43818;BME280;29868;47.360;18.984;2022-12-24T09:43:18;100043.81;;;8.89;100.00
43818;BME280;29868;47.360;18.984;2022-12-24T09:48:34;100028.59;;;9.08;100.00
43818;BME280;29868;47.360;18.984;2022-12-24T09:54:10;100031.06;;;9.55;100.00
43818;BME280;29868;47.360;18.984;2022-12-24T09:56:44;100036.31;;;9.61;100.00
43818;BME280;29868;47.360;18.984;2022-12-24T09:59:13;100038.25;;;9.75;100.00
43818;BME280;29868;47.360;18.984;2022-12-24T10:01:39;100033.97;;;9.81;100.00
43818;BME280;29868;47.360;18.984;2022-12-24T10:04:13;100043.63;;;9.89;100.00
43818;BME280;29868;47.360;18.984;2022-12-24T10:06:49;100053.31;;;10.03;100.00
43818;BME280;29868;47.360;18.984;2022-12-24T10:12:39;100068.28;;;10.23;100.00
43818;BME280;29868;47.360;18.984;2022-12-24T10:15:28;100070.00;;;10.23;100.00
43818;BME280;29868;47.360;18.984;2022-12-24T10:23:25;100066.19;;;10.65;100.00
43818;BME280;29868;47.360;18.984;2022-12-24T10:28:31;100062.75;;;10.66;100.00
43818;BME280;29868;47.360;18.984;2022-12-24T10:31:02;100069.03;;;10.88;100.00
43818;BME280;29868;47.360;18.984;2022-12-24T10:33:50;100063.94;;;11.00;100.00
43818;BME280;29868;47.360;18.984;2022-12-24T10:36:21;100069.09;;;10.95;100.00
43818;BME280;29868;47.360;18.984;2022-12-24T10:38:48;100069.19;;;11.08;100.00
43818;BME280;29868;47.360;18.984;2022-12-24T10:41:14;100076.97;;;11.03;100.00
43818;BME280;29868;47.360;18.984;2022-12-24T10:43:42;100075.44;;;11.28;100.00
43818;BME280;29868;47.360;18.984;2022-12-24T10:46:20;100073.66;;;11.23;100.00
43818;BME280;29868;47.360;18.984;2022-12-24T10:48:59;100075.59;;;11.50;100.00
43818;BME280;29868;47.360;18.984;2022-12-24T10:51:52;100082.63;;;11.60;100.00
43818;BME280;29868;47.360;18.984;2022-12-24T10:54:21;100080.03;;;11.61;100.00
43818;BME280;29868;47.360;18.984;2022-12-24T10:56:54;100080.91;;;11.65;100.00
43818;BME280;29868;47.360;18.984;2022-12-24T11:01:59;100077.44;;;11.66;100.00
43818;BME280;29868;47.360;18.984;2022-12-24T11:04:27;100074.00;;;11.70;100.00
43818;BME280;29868;47.360;18.984;2022-12-24T11:07:04;100074.97;;;11.83;100.00
43818;BME280;29868;47.360;18.984;2022-12-24T11:11:57;100074.19;;;11.96;100.00
43818;BME280;29868;47.360;18.984;2022-12-24T11:14:31;100084.59;;;11.96;100.00
43818;BME280;29868;47.360;18.984;2022-12-24T11:16:57;100087.31;;;12.13;100.00
43818;BME280;29868;47.360;18.984;2022-12-24T11:19:31;100090.75;;;12.12;100.00
43818;BME280;29868;47.360;18.984;2022-12-24T11:22:20;100100.31;;;12.10;100.00
43818;BME280;29868;47.360;18.984;2022-12-24T11:24:44;100095.97;;;12.10;100.00
43818;BME280;29868;47.360;18.984;2022-12-24T11:27:38;100107.25;;;12.15;100.00
43818;BME280;29868;47.360;18.984;2022-12-24T11:32:45;100109.94;;;12.26;100.00
43818;BME280;29868;47.360;18.984;2022-12-24T11:35:22;100098.63;;;12.21;100.00
43818;BME280;29868;47.360;18.984;2022-12-24T11:38:10;100107.34;;;12.29;100.00
43818;BME280;29868;47.360;18.984;2022-12-24T11:43:05;100109.91;;;12.22;100.00
43818;BME280;29868;47.360;18.984;2022-12-24T11:45:32;100117.75;;;12.26;100.00
43818;BME280;29868;47.360;18.984;2022-12-24T11:47:59;100110.84;;;12.31;100.00
43818;BME280;29868;47.360;18.984;2022-12-24T11:50:35;100123.00;;;12.32;100.00
43818;BME280;29868;47.360;18.984;2022-12-24T11:55:48;100114.31;;;12.36;100.00
43818;BME280;29868;47.360;18.984;2022-12-24T11:58:40;100125.59;;;12.34;100.00
43818;BME280;29868;47.360;18.984;2022-12-24T12:01:33;100119.50;;;12.33;100.00
43818;BME280;29868;47.360;18.984;2022-12-24T12:04:28;100127.34;;;12.36;100.00
43818;BME280;29868;47.360;18.984;2022-12-24T12:07:00;100125.56;;;12.28;100.00
43818;BME280;29868;47.360;18.984;2022-12-24T12:09:32;100133.41;;;12.37;100.00
43818;BME280;29868;47.360;18.984;2022-12-24T12:12:21;100141.28;;;12.45;100.00
43818;BME280;29868;47.360;18.984;2022-12-24T12:15:11;100141.28;;;12.49;100.00
43818;BME280;29868;47.360;18.984;2022-12-24T12:17:43;100130.84;;;12.43;100.00
43818;BME280;29868;47.360;18.984;2022-12-24T12:20:22;100135.22;;;12.49;100.00
43818;BME280;29868;47.360;18.984;2022-12-24T12:25:25;100137.78;;;12.41;100.00
43818;BME280;29868;47.360;18.984;2022-12-24T12:27:53;100135.22;;;12.49;100.00
43818;BME280;29868;47.360;18.984;2022-12-24T12:30:21;100140.38;;;12.39;100.00
43818;BME280;29868;47.360;18.984;2022-12-24T12:33:14;100149.94;;;12.42;100.00
43818;BME280;29868;47.360;18.984;2022-12-24T12:35:42;100147.34;;;12.44;100.00
43818;BME280;29868;47.360;18.984;2022-12-24T12:38:18;100152.59;;;12.47;100.00
43818;BME280;29868;47.360;18.984;2022-12-24T12:45:53;100154.28;;;12.41;100.00
43818;BME280;29868;47.360;18.984;2022-12-24T12:50:57;100160.34;;;12.40;100.00
43818;BME280;29868;47.360;18.984;2022-12-24T12:56:20;100166.41;;;12.38;100.00
43818;BME280;29868;47.360;18.984;2022-12-24T12:58:56;100170.75;;;12.36;100.00
43818;BME280;29868;47.360;18.984;2022-12-24T13:10:41;100166.41;;;12.36;100.00
43818;BME280;29868;47.360;18.984;2022-12-24T13:13:37;100166.34;;;12.27;100.00
43818;BME280;29868;47.360;18.984;2022-12-24T13:21:47;100176.75;;;12.21;100.00
43818;BME280;29868;47.360;18.984;2022-12-24T13:24:17;100181.03;;;12.13;100.00
43818;BME280;29868;47.360;18.984;2022-12-24T13:27:05;100165.34;;;12.02;100.00
43818;BME280;29868;47.360;18.984;2022-12-24T13:34:56;100182.50;;;11.80;100.00
43818;BME280;29868;47.360;18.984;2022-12-24T13:42:45;100197.97;;;11.62;100.00
43818;BME280;29868;47.360;18.984;2022-12-24T13:48:21;100206.66;;;11.64;100.00
43818;BME280;29868;47.360;18.984;2022-12-24T13:50:53;100206.69;;;11.67;100.00
43818;BME280;29868;47.360;18.984;2022-12-24T13:56:06;100197.19;;;11.72;100.00
43818;BME280;29868;47.360;18.984;2022-12-24T13:58:35;100215.53;;;11.84;100.00
43818;BME280;29868;47.360;18.984;2022-12-24T14:01:14;100218.06;;;11.81;100.00
43818;BME280;29868;47.360;18.984;2022-12-24T14:03:47;100224.06;;;11.74;100.00
43818;BME280;29868;47.360;18.984;2022-12-24T14:06:29;100224.91;;;11.70;100.00
43818;BME280;29868;47.360;18.984;2022-12-24T14:17:01;100250.88;;;11.64;100.00
43818;BME280;29868;47.360;18.984;2022-12-24T14:19:42;100252.56;;;11.56;100.00
43818;BME280;29868;47.360;18.984;2022-12-24T14:24:43;100255.97;;;11.52;100.00
43818;BME280;29868;47.360;18.984;2022-12-24T14:29:47;100268.16;;;11.56;100.00
43818;BME280;29868;47.360;18.984;2022-12-24T14:32:15;100272.38;;;11.46;100.00
43818;BME280;29868;47.360;18.984;2022-12-24T14:34:41;100283.69;;;11.48;100.00
43818;BME280;29868;47.360;18.984;2022-12-24T14:37:10;100294.88;;;11.42;100.00
43818;BME280;29868;47.360;18.984;2022-12-24T14:39:41;100301.78;;;11.39;100.00
43818;BME280;29868;47.360;18.984;2022-12-24T14:42:48;100299.78;;;11.15;100.00
43818;BME280;29868;47.360;18.984;2022-12-24T14:45:33;100299.72;;;11.10;100.00
43818;BME280;29868;47.360;18.984;2022-12-24T14:51:19;100298.63;;;10.91;100.00
43818;BME280;29868;47.360;18.984;2022-12-24T14:56:33;100304.53;;;10.80;100.00
43818;BME280;29868;47.360;18.984;2022-12-24T14:58:59;100305.28;;;10.76;100.00